sensor_id;sensor_type;location;lat;lon;timestamp;P1;durP1;ratioP1;P2;durP2;ratioP2
32236;SDS011;18726;44.732;10.550;2022-10-31T00:01:15;13.13;;;9.48;;
32236;SDS011;18726;44.732;10.550;2022-10-31T00:04:21;12.95;;;9.20;;
32236;SDS011;18726;44.732;10.550;2022-10-31T00:07:25;11.35;;;9.88;;
32236;SDS011;18726;44.732;10.550;2022-10-31T00:10:28;13.63;;;10.75;;
32236;SDS011;18726;44.732;10.550;2022-10-31T00:13:31;10.13;;;9.23;;
32236;SDS011;18726;44.732;10.550;2022-10-31T00:16:35;14.52;;;9.85;;
32236;SDS011;18726;44.732;10.550;2022-10-31T00:19:39;13.55;;;9.07;;
32236;SDS011;18726;44.732;10.550;2022-10-31T00:22:42;14.65;;;8.93;;
32236;SDS011;18726;44.732;10.550;2022-10-31T00:25:46;8.88;;;7.95;;
32236;SDS011;18726;44.732;10.550;2022-10-31T00:28:49;12.52;;;8.65;;
32236;SDS011;18726;44.732;10.550;2022-10-31T00:31:54;13.98;;;8.93;;
32236;SDS011;18726;44.732;10.550;2022-10-31T00:34:57;12.95;;;8.52;;
32236;SDS011;18726;44.732;10.550;2022-10-31T00:38:01;11.38;;;8.48;;
32236;SDS011;18726;44.732;10.550;2022-10-31T00:41:04;10.30;;;8.85;;
32236;SDS011;18726;44.732;10.550;2022-10-31T00:44:08;10.65;;;8.25;;
32236;SDS011;18726;44.732;10.550;2022-10-31T00:47:12;10.90;;;9.18;;
32236;SDS011;18726;44.732;10.550;2022-10-31T00:50:15;13.15;;;8.57;;
32236;SDS011;18726;44.732;10.550;2022-10-31T00:53:19;10.60;;;8.50;;
32236;SDS011;18726;44.732;10.550;2022-10-31T00:56:23;9.90;;;8.63;;
32236;SDS011;18726;44.732;10.550;2022-10-31T00:59:27;9.27;;;7.60;;
32236;SDS011;18726;44.732;10.550;2022-10-31T01:02:31;11.90;;;9.07;;
32236;SDS011;18726;44.732;10.550;2022-10-31T01:05:34;12.68;;;9.05;;
32236;SDS011;18726;44.732;10.550;2022-10-31T01:08:39;9.27;;;8.32;;
32236;SDS011;18726;44.732;10.550;2022-10-31T01:11:43;12.07;;;8.05;;
32236;SDS011;18726;44.732;10.550;2022-10-31T01:14:47;8.55;;;6.97;;
32236;SDS011;18726;44.732;10.550;2022-10-31T01:17:51;11.27;;;7.97;;
32236;SDS011;18726;44.732;10.550;2022-10-31T01:21:03;11.90;;;7.88;;
32236;SDS011;18726;44.732;10.550;2022-10-31T01:24:11;11.73;;;7.85;;
32236;SDS011;18726;44.732;10.550;2022-10-31T01:27:15;9.15;;;7.70;;
32236;SDS011;18726;44.732;10.550;2022-10-31T01:30:18;11.25;;;7.70;;
32236;SDS011;18726;44.732;10.550;2022-10-31T01:33:22;9.40;;;7.57;;
32236;SDS011;18726;44.732;10.550;2022-10-31T01:36:27;10.68;;;7.72;;
32236;SDS011;18726;44.732;10.550;2022-10-31T01:39:32;9.32;;;7.97;;
32236;SDS011;18726;44.732;10.550;2022-10-31T01:42:36;8.05;;;7.13;;
32236;SDS011;18726;44.732;10.550;2022-10-31T01:45:41;11.35;;;8.25;;
32236;SDS011;18726;44.732;10.550;2022-10-31T01:48:47;11.00;;;8.82;;
32236;SDS011;18726;44.732;10.550;2022-10-31T01:52:02;9.55;;;8.52;;
32236;SDS011;18726;44.732;10.550;2022-10-31T01:55:11;8.02;;;7.22;;
32236;SDS011;18726;44.732;10.550;2022-10-31T02:01:28;8.80;;;7.68;;
32236;SDS011;18726;44.732;10.550;2022-10-31T02:04:32;14.68;;;8.52;;
32236;SDS011;18726;44.732;10.550;2022-10-31T02:10:56;10.40;;;7.43;;
32236;SDS011;18726;44.732;10.550;2022-10-31T02:14:02;10.25;;;8.55;;
32236;SDS011;18726;44.732;10.550;2022-10-31T02:17:06;9.57;;;8.13;;
32236;SDS011;18726;44.732;10.550;2022-10-31T02:20:20;12.18;;;8.18;;
32236;SDS011;18726;44.732;10.550;2022-10-31T02:30:21;9.68;;;7.82;;
32236;SDS011;18726;44.732;10.550;2022-10-31T02:33:30;8.80;;;7.03;;
32236;SDS011;18726;44.732;10.550;2022-10-31T02:41:19;10.13;;;7.32;;
32236;SDS011;18726;44.732;10.550;2022-10-31T02:44:23;12.10;;;6.93;;
32236;SDS011;18726;44.732;10.550;2022-10-31T02:47:30;9.70;;;8.25;;
32236;SDS011;18726;44.732;10.550;2022-10-31T02:50:39;8.85;;;7.82;;
32236;SDS011;18726;44.732;10.550;2022-10-31T02:53:47;8.95;;;7.60;;
32236;SDS011;18726;44.732;10.550;2022-10-31T02:56:52;10.35;;;8.55;;
32236;SDS011;18726;44.732;10.550;2022-10-31T03:00:01;11.52;;;10.13;;
32236;SDS011;18726;44.732;10.550;2022-10-31T03:09:49;11.10;;;9.60;;
32236;SDS011;18726;44.732;10.550;2022-10-31T03:12:58;13.20;;;10.23;;
32236;SDS011;18726;44.732;10.550;2022-10-31T03:16:13;12.55;;;11.13;;
32236;SDS011;18726;44.732;10.550;2022-10-31T03:22:29;14.93;;;12.18;;
32236;SDS011;18726;44.732;10.550;2022-10-31T03:25:36;24.33;;;16.40;;
32236;SDS011;18726;44.732;10.550;2022-10-31T03:28:49;17.30;;;14.77;;
32236;SDS011;18726;44.732;10.550;2022-10-31T03:31:58;14.50;;;13.00;;
32236;SDS011;18726;44.732;10.550;2022-10-31T03:35:05;14.45;;;12.07;;
32236;SDS011;18726;44.732;10.550;2022-10-31T03:38:11;20.67;;;13.73;;
32236;SDS011;18726;44.732;10.550;2022-10-31T03:41:21;15.75;;;13.23;;
32236;SDS011;18726;44.732;10.550;2022-10-31T03:44:30;12.95;;;8.25;;
32236;SDS011;18726;44.732;10.550;2022-10-31T03:47:39;10.05;;;9.02;;
32236;SDS011;18726;44.732;10.550;2022-10-31T03:50:48;13.65;;;9.30;;
32236;SDS011;18726;44.732;10.550;2022-10-31T03:53:57;10.68;;;7.55;;
32236;SDS011;18726;44.732;10.550;2022-10-31T04:00:44;12.77;;;11.43;;
32236;SDS011;18726;44.732;10.550;2022-10-31T04:03:50;10.70;;;9.70;;
32236;SDS011;18726;44.732;10.550;2022-10-31T04:06:54;11.68;;;9.02;;
32236;SDS011;18726;44.732;10.550;2022-10-31T04:10:00;8.65;;;7.75;;
32236;SDS011;18726;44.732;10.550;2022-10-31T04:13:12;9.23;;;7.50;;
32236;SDS011;18726;44.732;10.550;2022-10-31T04:16:25;8.55;;;6.80;;
32236;SDS011;18726;44.732;10.550;2022-10-31T04:19:29;9.30;;;7.88;;
32236;SDS011;18726;44.732;10.550;2022-10-31T04:22:33;13.18;;;8.90;;
32236;SDS011;18726;44.732;10.550;2022-10-31T04:25:36;9.07;;;7.93;;
32236;SDS011;18726;44.732;10.550;2022-10-31T04:28:40;10.57;;;8.05;;
32236;SDS011;18726;44.732;10.550;2022-10-31T04:31:44;11.18;;;7.78;;
32236;SDS011;18726;44.732;10.550;2022-10-31T04:34:48;10.40;;;8.05;;
32236;SDS011;18726;44.732;10.550;2022-10-31T04:37:52;8.25;;;7.45;;
32236;SDS011;18726;44.732;10.550;2022-10-31T04:40:56;8.32;;;7.30;;
32236;SDS011;18726;44.732;10.550;2022-10-31T04:44:32;9.05;;;6.75;;
32236;SDS011;18726;44.732;10.550;2022-10-31T04:47:38;7.68;;;6.88;;
32236;SDS011;18726;44.732;10.550;2022-10-31T04:50:43;7.80;;;7.10;;
32236;SDS011;18726;44.732;10.550;2022-10-31T04:53:46;8.05;;;7.25;;
32236;SDS011;18726;44.732;10.550;2022-10-31T04:57:04;7.20;;;6.50;;
32236;SDS011;18726;44.732;10.550;2022-10-31T05:00:09;9.50;;;8.20;;
32236;SDS011;18726;44.732;10.550;2022-10-31T05:03:15;11.27;;;8.45;;
32236;SDS011;18726;44.732;10.550;2022-10-31T05:06:19;7.82;;;7.00;;
32236;SDS011;18726;44.732;10.550;2022-10-31T05:09:23;12.38;;;9.90;;
32236;SDS011;18726;44.732;10.550;2022-10-31T05:12:27;10.63;;;9.00;;
32236;SDS011;18726;44.732;10.550;2022-10-31T05:15:53;10.50;;;9.32;;
32236;SDS011;18726;44.732;10.550;2022-10-31T05:19:15;14.00;;;10.55;;
32236;SDS011;18726;44.732;10.550;2022-10-31T05:22:46;11.75;;;10.40;;
32236;SDS011;18726;44.732;10.550;2022-10-31T05:25:52;14.65;;;10.13;;
32236;SDS011;18726;44.732;10.550;2022-10-31T05:28:55;10.02;;;9.02;;
32236;SDS011;18726;44.732;10.550;2022-10-31T05:32:00;10.63;;;8.77;;
32236;SDS011;18726;44.732;10.550;2022-10-31T05:35:32;9.85;;;8.23;;
32236;SDS011;18726;44.732;10.550;2022-10-31T05:39:05;12.35;;;9.43;;
32236;SDS011;18726;44.732;10.550;2022-10-31T05:42:17;11.98;;;10.13;;
32236;SDS011;18726;44.732;10.550;2022-10-31T05:45:21;11.05;;;9.95;;
32236;SDS011;18726;44.732;10.550;2022-10-31T05:48:37;13.65;;;10.45;;
32236;SDS011;18726;44.732;10.550;2022-10-31T05:52:03;13.98;;;11.15;;
32236;SDS011;18726;44.732;10.550;2022-10-31T05:55:15;14.23;;;10.45;;
32236;SDS011;18726;44.732;10.550;2022-10-31T05:58:31;11.43;;;10.27;;
32236;SDS011;18726;44.732;10.550;2022-10-31T06:01:39;12.38;;;9.05;;
32236;SDS011;18726;44.732;10.550;2022-10-31T06:04:52;14.82;;;10.55;;
32236;SDS011;18726;44.732;10.550;2022-10-31T06:07:56;12.88;;;9.25;;
32236;SDS011;18726;44.732;10.550;2022-10-31T06:11:00;10.95;;;9.65;;
32236;SDS011;18726;44.732;10.550;2022-10-31T06:14:24;13.50;;;10.48;;
32236;SDS011;18726;44.732;10.550;2022-10-31T06:17:32;16.48;;;11.63;;
32236;SDS011;18726;44.732;10.550;2022-10-31T06:20:43;13.15;;;10.88;;
32236;SDS011;18726;44.732;10.550;2022-10-31T06:23:49;12.93;;;11.00;;
32236;SDS011;18726;44.732;10.550;2022-10-31T06:27:12;16.05;;;10.77;;
32236;SDS011;18726;44.732;10.550;2022-10-31T06:30:16;16.60;;;10.73;;
32236;SDS011;18726;44.732;10.550;2022-10-31T06:33:22;11.05;;;8.93;;
32236;SDS011;18726;44.732;10.550;2022-10-31T06:36:32;10.27;;;8.05;;
32236;SDS011;18726;44.732;10.550;2022-10-31T06:39:36;13.88;;;7.80;;
32236;SDS011;18726;44.732;10.550;2022-10-31T06:42:41;12.38;;;8.15;;
32236;SDS011;18726;44.732;10.550;2022-10-31T06:45:46;12.73;;;9.05;;
32236;SDS011;18726;44.732;10.550;2022-10-31T06:48:50;15.65;;;9.55;;
32236;SDS011;18726;44.732;10.550;2022-10-31T06:51:56;10.65;;;9.52;;
32236;SDS011;18726;44.732;10.550;2022-10-31T06:55:00;12.30;;;9.65;;
32236;SDS011;18726;44.732;10.550;2022-10-31T06:58:04;13.23;;;9.27;;
32236;SDS011;18726;44.732;10.550;2022-10-31T07:01:08;13.65;;;9.15;;
32236;SDS011;18726;44.732;10.550;2022-10-31T07:04:11;11.02;;;8.38;;
32236;SDS011;18726;44.732;10.550;2022-10-31T07:07:15;9.75;;;8.30;;
32236;SDS011;18726;44.732;10.550;2022-10-31T07:10:19;11.70;;;7.88;;
32236;SDS011;18726;44.732;10.550;2022-10-31T07:13:29;7.50;;;6.72;;
32236;SDS011;18726;44.732;10.550;2022-10-31T07:16:47;15.63;;;7.47;;
32236;SDS011;18726;44.732;10.550;2022-10-31T07:19:52;12.25;;;7.53;;
32236;SDS011;18726;44.732;10.550;2022-10-31T07:22:56;7.80;;;6.15;;
32236;SDS011;18726;44.732;10.550;2022-10-31T07:26:01;13.95;;;6.65;;
32236;SDS011;18726;44.732;10.550;2022-10-31T07:29:15;12.98;;;6.25;;
32236;SDS011;18726;44.732;10.550;2022-10-31T07:32:19;10.70;;;6.13;;
32236;SDS011;18726;44.732;10.550;2022-10-31T07:35:29;12.02;;;6.50;;
32236;SDS011;18726;44.732;10.550;2022-10-31T07:38:34;11.40;;;5.30;;
32236;SDS011;18726;44.732;10.550;2022-10-31T07:41:40;11.68;;;5.07;;
32236;SDS011;18726;44.732;10.550;2022-10-31T07:44:46;10.60;;;5.15;;
32236;SDS011;18726;44.732;10.550;2022-10-31T07:48:12;6.00;;;4.05;;
32236;SDS011;18726;44.732;10.550;2022-10-31T07:51:35;9.48;;;4.32;;
32236;SDS011;18726;44.732;10.550;2022-10-31T07:55:16;7.65;;;3.95;;
32236;SDS011;18726;44.732;10.550;2022-10-31T07:58:24;7.53;;;3.70;;
32236;SDS011;18726;44.732;10.550;2022-10-31T08:01:28;8.63;;;3.42;;
32236;SDS011;18726;44.732;10.550;2022-10-31T08:04:54;7.80;;;3.58;;
32236;SDS011;18726;44.732;10.550;2022-10-31T08:08:30;6.95;;;3.70;;
32236;SDS011;18726;44.732;10.550;2022-10-31T08:11:35;7.72;;;3.83;;
32236;SDS011;18726;44.732;10.550;2022-10-31T08:14:39;5.40;;;3.30;;
32236;SDS011;18726;44.732;10.550;2022-10-31T08:17:43;9.90;;;3.50;;
32236;SDS011;18726;44.732;10.550;2022-10-31T08:20:48;5.05;;;3.35;;
32236;SDS011;18726;44.732;10.550;2022-10-31T08:23:51;3.88;;;3.00;;
32236;SDS011;18726;44.732;10.550;2022-10-31T08:26:57;7.50;;;3.72;;
32236;SDS011;18726;44.732;10.550;2022-10-31T08:30:01;6.95;;;3.90;;
32236;SDS011;18726;44.732;10.550;2022-10-31T08:33:15;9.43;;;3.95;;
32236;SDS011;18726;44.732;10.550;2022-10-31T08:36:49;6.03;;;3.75;;
32236;SDS011;18726;44.732;10.550;2022-10-31T08:40:01;6.00;;;4.15;;
32236;SDS011;18726;44.732;10.550;2022-10-31T08:43:11;10.00;;;4.53;;
32236;SDS011;18726;44.732;10.550;2022-10-31T08:46:16;7.75;;;4.57;;
32236;SDS011;18726;44.732;10.550;2022-10-31T08:49:21;10.20;;;5.90;;
32236;SDS011;18726;44.732;10.550;2022-10-31T08:52:25;13.48;;;6.45;;
32236;SDS011;18726;44.732;10.550;2022-10-31T08:55:35;13.73;;;5.18;;
32236;SDS011;18726;44.732;10.550;2022-10-31T08:58:44;11.38;;;6.03;;
32236;SDS011;18726;44.732;10.550;2022-10-31T09:01:48;10.32;;;7.05;;
32236;SDS011;18726;44.732;10.550;2022-10-31T09:04:52;13.43;;;7.55;;
32236;SDS011;18726;44.732;10.550;2022-10-31T09:07:55;13.65;;;7.75;;
32236;SDS011;18726;44.732;10.550;2022-10-31T09:11:01;13.05;;;8.40;;
32236;SDS011;18726;44.732;10.550;2022-10-31T09:14:25;11.65;;;6.85;;
32236;SDS011;18726;44.732;10.550;2022-10-31T09:17:50;10.68;;;7.32;;
32236;SDS011;18726;44.732;10.550;2022-10-31T09:21:15;12.27;;;8.40;;
32236;SDS011;18726;44.732;10.550;2022-10-31T09:24:19;14.02;;;10.60;;
32236;SDS011;18726;44.732;10.550;2022-10-31T09:27:27;15.93;;;8.70;;
32236;SDS011;18726;44.732;10.550;2022-10-31T09:30:33;14.20;;;9.50;;
32236;SDS011;18726;44.732;10.550;2022-10-31T09:33:39;12.68;;;8.98;;
32236;SDS011;18726;44.732;10.550;2022-10-31T09:37:05;12.43;;;8.90;;
32236;SDS011;18726;44.732;10.550;2022-10-31T09:40:11;12.98;;;8.85;;
32236;SDS011;18726;44.732;10.550;2022-10-31T09:56:31;14.20;;;10.00;;
32236;SDS011;18726;44.732;10.550;2022-10-31T09:59:38;17.63;;;12.32;;
32236;SDS011;18726;44.732;10.550;2022-10-31T10:02:56;16.90;;;12.52;;
32236;SDS011;18726;44.732;10.550;2022-10-31T10:06:14;14.45;;;12.27;;
32236;SDS011;18726;44.732;10.550;2022-10-31T10:10:02;19.05;;;13.82;;
32236;SDS011;18726;44.732;10.550;2022-10-31T10:20:04;19.25;;;12.95;;
32236;SDS011;18726;44.732;10.550;2022-10-31T10:26:43;21.10;;;12.70;;
32236;SDS011;18726;44.732;10.550;2022-10-31T10:33:18;19.08;;;13.23;;
32236;SDS011;18726;44.732;10.550;2022-10-31T10:36:36;26.52;;;17.75;;
32236;SDS011;18726;44.732;10.550;2022-10-31T10:39:47;20.08;;;14.45;;
32236;SDS011;18726;44.732;10.550;2022-10-31T10:46:32;17.48;;;12.18;;
32236;SDS011;18726;44.732;10.550;2022-10-31T10:50:05;19.23;;;16.40;;
32236;SDS011;18726;44.732;10.550;2022-10-31T10:56:33;17.00;;;13.13;;
32236;SDS011;18726;44.732;10.550;2022-10-31T10:59:45;22.38;;;15.15;;
32236;SDS011;18726;44.732;10.550;2022-10-31T11:02:49;21.58;;;14.25;;
32236;SDS011;18726;44.732;10.550;2022-10-31T11:05:54;19.05;;;14.90;;
32236;SDS011;18726;44.732;10.550;2022-10-31T11:09:08;20.60;;;13.63;;
32236;SDS011;18726;44.732;10.550;2022-10-31T11:12:19;22.13;;;12.18;;
32236;SDS011;18726;44.732;10.550;2022-10-31T11:15:48;23.00;;;15.10;;
32236;SDS011;18726;44.732;10.550;2022-10-31T11:19:08;16.00;;;11.80;;
32236;SDS011;18726;44.732;10.550;2022-10-31T11:22:20;22.48;;;15.90;;
32236;SDS011;18726;44.732;10.550;2022-10-31T11:25:24;23.83;;;17.98;;
32236;SDS011;18726;44.732;10.550;2022-10-31T11:28:29;21.30;;;14.13;;
32236;SDS011;18726;44.732;10.550;2022-10-31T11:31:35;21.52;;;16.40;;
32236;SDS011;18726;44.732;10.550;2022-10-31T11:34:43;17.50;;;12.57;;
32236;SDS011;18726;44.732;10.550;2022-10-31T11:37:50;24.43;;;16.47;;
32236;SDS011;18726;44.732;10.550;2022-10-31T11:41:07;23.00;;;16.90;;
32236;SDS011;18726;44.732;10.550;2022-10-31T11:44:20;23.60;;;17.38;;
32236;SDS011;18726;44.732;10.550;2022-10-31T11:50:40;17.55;;;13.07;;
32236;SDS011;18726;44.732;10.550;2022-10-31T11:53:52;18.77;;;14.45;;
32236;SDS011;18726;44.732;10.550;2022-10-31T11:56:58;18.83;;;14.55;;
32236;SDS011;18726;44.732;10.550;2022-10-31T12:00:02;27.55;;;17.20;;
32236;SDS011;18726;44.732;10.550;2022-10-31T12:06:29;24.38;;;16.70;;
32236;SDS011;18726;44.732;10.550;2022-10-31T12:09:36;24.90;;;17.00;;
32236;SDS011;18726;44.732;10.550;2022-10-31T12:13:04;25.42;;;15.73;;
32236;SDS011;18726;44.732;10.550;2022-10-31T12:17:18;25.33;;;19.30;;
32236;SDS011;18726;44.732;10.550;2022-10-31T12:30:24;24.10;;;17.88;;
32236;SDS011;18726;44.732;10.550;2022-10-31T12:40:32;30.75;;;19.58;;
32236;SDS011;18726;44.732;10.550;2022-10-31T12:43:57;27.30;;;18.25;;
32236;SDS011;18726;44.732;10.550;2022-10-31T12:56:49;19.75;;;14.02;;
32236;SDS011;18726;44.732;10.550;2022-10-31T13:06:29;27.17;;;15.55;;
32236;SDS011;18726;44.732;10.550;2022-10-31T13:09:41;32.38;;;23.77;;
32236;SDS011;18726;44.732;10.550;2022-10-31T13:12:54;24.20;;;18.38;;
32236;SDS011;18726;44.732;10.550;2022-10-31T13:19:25;26.53;;;19.03;;
32236;SDS011;18726;44.732;10.550;2022-10-31T13:22:33;33.17;;;19.65;;
32236;SDS011;18726;44.732;10.550;2022-10-31T13:25:42;23.42;;;16.85;;
32236;SDS011;18726;44.732;10.550;2022-10-31T13:29:28;21.63;;;15.88;;
32236;SDS011;18726;44.732;10.550;2022-10-31T13:32:39;30.48;;;20.40;;
32236;SDS011;18726;44.732;10.550;2022-10-31T13:36:07;26.13;;;17.88;;
32236;SDS011;18726;44.732;10.550;2022-10-31T13:39:30;30.05;;;22.20;;
32236;SDS011;18726;44.732;10.550;2022-10-31T13:42:59;24.67;;;18.67;;
32236;SDS011;18726;44.732;10.550;2022-10-31T13:46:20;27.38;;;17.45;;
32236;SDS011;18726;44.732;10.550;2022-10-31T13:52:32;35.38;;;23.80;;
32236;SDS011;18726;44.732;10.550;2022-10-31T13:55:44;26.27;;;18.25;;
32236;SDS011;18726;44.732;10.550;2022-10-31T13:59:14;39.42;;;23.17;;
32236;SDS011;18726;44.732;10.550;2022-10-31T14:02:27;32.65;;;18.42;;
32236;SDS011;18726;44.732;10.550;2022-10-31T14:05:33;30.10;;;22.05;;
32236;SDS011;18726;44.732;10.550;2022-10-31T14:08:39;20.95;;;16.63;;
32236;SDS011;18726;44.732;10.550;2022-10-31T14:11:50;23.83;;;17.63;;
32236;SDS011;18726;44.732;10.550;2022-10-31T14:14:55;26.35;;;17.65;;
32236;SDS011;18726;44.732;10.550;2022-10-31T14:18:05;23.92;;;18.38;;
32236;SDS011;18726;44.732;10.550;2022-10-31T14:24:32;26.13;;;17.40;;
32236;SDS011;18726;44.732;10.550;2022-10-31T14:27:45;27.67;;;18.40;;
32236;SDS011;18726;44.732;10.550;2022-10-31T14:30:53;27.00;;;15.20;;
32236;SDS011;18726;44.732;10.550;2022-10-31T14:33:59;29.20;;;18.55;;
32236;SDS011;18726;44.732;10.550;2022-10-31T14:37:48;32.28;;;17.00;;
32236;SDS011;18726;44.732;10.550;2022-10-31T14:41:14;25.80;;;16.20;;
32236;SDS011;18726;44.732;10.550;2022-10-31T14:51:47;24.05;;;16.17;;
32236;SDS011;18726;44.732;10.550;2022-10-31T14:54:54;25.67;;;14.75;;
32236;SDS011;18726;44.732;10.550;2022-10-31T14:58:04;28.50;;;16.70;;
32236;SDS011;18726;44.732;10.550;2022-10-31T15:01:33;23.95;;;18.00;;
32236;SDS011;18726;44.732;10.550;2022-10-31T15:04:40;25.90;;;15.07;;
32236;SDS011;18726;44.732;10.550;2022-10-31T15:07:51;23.23;;;16.90;;
32236;SDS011;18726;44.732;10.550;2022-10-31T15:10:56;24.08;;;15.15;;
32236;SDS011;18726;44.732;10.550;2022-10-31T15:13:59;24.95;;;13.85;;
32236;SDS011;18726;44.732;10.550;2022-10-31T15:17:03;23.65;;;14.52;;
32236;SDS011;18726;44.732;10.550;2022-10-31T15:20:07;19.58;;;14.18;;
32236;SDS011;18726;44.732;10.550;2022-10-31T15:23:24;24.00;;;16.25;;
32236;SDS011;18726;44.732;10.550;2022-10-31T15:26:35;26.08;;;15.68;;
32236;SDS011;18726;44.732;10.550;2022-10-31T15:29:47;20.80;;;14.93;;
32236;SDS011;18726;44.732;10.550;2022-10-31T15:32:58;20.05;;;16.55;;
32236;SDS011;18726;44.732;10.550;2022-10-31T15:36:02;28.10;;;20.70;;
32236;SDS011;18726;44.732;10.550;2022-10-31T15:39:08;35.78;;;26.00;;
32236;SDS011;18726;44.732;10.550;2022-10-31T15:45:32;30.67;;;22.10;;
32236;SDS011;18726;44.732;10.550;2022-10-31T15:48:35;41.78;;;24.30;;
32236;SDS011;18726;44.732;10.550;2022-10-31T15:51:40;29.45;;;22.40;;
32236;SDS011;18726;44.732;10.550;2022-10-31T15:54:45;34.03;;;22.02;;
32236;SDS011;18726;44.732;10.550;2022-10-31T15:57:53;41.22;;;25.30;;
32236;SDS011;18726;44.732;10.550;2022-10-31T16:01:03;35.10;;;23.40;;
32236;SDS011;18726;44.732;10.550;2022-10-31T16:07:15;39.00;;;24.55;;
32236;SDS011;18726;44.732;10.550;2022-10-31T16:10:25;46.03;;;22.77;;
32236;SDS011;18726;44.732;10.550;2022-10-31T16:13:31;42.65;;;24.45;;
32236;SDS011;18726;44.732;10.550;2022-10-31T16:16:44;31.58;;;20.05;;
32236;SDS011;18726;44.732;10.550;2022-10-31T16:19:52;40.47;;;23.15;;
32236;SDS011;18726;44.732;10.550;2022-10-31T16:23:00;26.08;;;16.05;;
32236;SDS011;18726;44.732;10.550;2022-10-31T16:26:07;20.05;;;15.05;;
32236;SDS011;18726;44.732;10.550;2022-10-31T16:29:23;23.42;;;15.18;;
32236;SDS011;18726;44.732;10.550;2022-10-31T16:32:58;19.27;;;14.15;;
32236;SDS011;18726;44.732;10.550;2022-10-31T16:39:35;18.77;;;12.77;;
32236;SDS011;18726;44.732;10.550;2022-10-31T16:42:38;18.33;;;13.65;;
32236;SDS011;18726;44.732;10.550;2022-10-31T16:45:50;20.52;;;13.70;;
32236;SDS011;18726;44.732;10.550;2022-10-31T16:48:54;21.13;;;15.18;;
32236;SDS011;18726;44.732;10.550;2022-10-31T16:51:58;33.72;;;21.10;;
32236;SDS011;18726;44.732;10.550;2022-10-31T16:55:01;29.40;;;22.08;;
32236;SDS011;18726;44.732;10.550;2022-10-31T16:58:05;29.85;;;21.73;;
32236;SDS011;18726;44.732;10.550;2022-10-31T17:01:17;32.90;;;21.95;;
32236;SDS011;18726;44.732;10.550;2022-10-31T17:04:21;29.90;;;18.80;;
32236;SDS011;18726;44.732;10.550;2022-10-31T17:07:25;34.28;;;22.15;;
32236;SDS011;18726;44.732;10.550;2022-10-31T17:10:28;42.30;;;24.65;;
32236;SDS011;18726;44.732;10.550;2022-10-31T17:13:32;39.78;;;26.30;;
32236;SDS011;18726;44.732;10.550;2022-10-31T17:16:37;43.50;;;27.67;;
32236;SDS011;18726;44.732;10.550;2022-10-31T17:19:41;50.20;;;27.30;;
32236;SDS011;18726;44.732;10.550;2022-10-31T17:22:44;34.95;;;27.02;;
32236;SDS011;18726;44.732;10.550;2022-10-31T17:25:48;44.65;;;27.55;;
32236;SDS011;18726;44.732;10.550;2022-10-31T17:28:51;57.35;;;29.92;;
32236;SDS011;18726;44.732;10.550;2022-10-31T17:31:55;52.40;;;28.77;;
32236;SDS011;18726;44.732;10.550;2022-10-31T17:34:58;65.10;;;29.20;;
32236;SDS011;18726;44.732;10.550;2022-10-31T17:38:02;51.33;;;30.35;;
32236;SDS011;18726;44.732;10.550;2022-10-31T17:41:06;40.42;;;28.42;;
32236;SDS011;18726;44.732;10.550;2022-10-31T17:44:10;51.85;;;30.30;;
32236;SDS011;18726;44.732;10.550;2022-10-31T17:47:14;45.90;;;29.67;;
32236;SDS011;18726;44.732;10.550;2022-10-31T17:50:19;45.72;;;29.33;;
32236;SDS011;18726;44.732;10.550;2022-10-31T17:53:24;41.05;;;26.67;;
32236;SDS011;18726;44.732;10.550;2022-10-31T17:56:31;54.70;;;33.05;;
32236;SDS011;18726;44.732;10.550;2022-10-31T17:59:34;39.72;;;24.65;;
32236;SDS011;18726;44.732;10.550;2022-10-31T18:02:38;26.23;;;18.08;;
32236;SDS011;18726;44.732;10.550;2022-10-31T18:05:49;29.83;;;20.17;;
32236;SDS011;18726;44.732;10.550;2022-10-31T18:09:03;38.75;;;25.40;;
32236;SDS011;18726;44.732;10.550;2022-10-31T18:12:08;41.53;;;28.50;;
32236;SDS011;18726;44.732;10.550;2022-10-31T18:15:11;53.10;;;29.75;;
32236;SDS011;18726;44.732;10.550;2022-10-31T18:18:15;43.13;;;27.15;;
32236;SDS011;18726;44.732;10.550;2022-10-31T18:21:19;28.75;;;19.65;;
32236;SDS011;18726;44.732;10.550;2022-10-31T18:24:22;37.08;;;23.00;;
32236;SDS011;18726;44.732;10.550;2022-10-31T18:27:26;49.65;;;26.90;;
32236;SDS011;18726;44.732;10.550;2022-10-31T18:30:29;46.55;;;28.58;;
32236;SDS011;18726;44.732;10.550;2022-10-31T18:33:33;40.78;;;29.65;;
32236;SDS011;18726;44.732;10.550;2022-10-31T18:36:36;42.63;;;27.92;;
32236;SDS011;18726;44.732;10.550;2022-10-31T18:39:39;24.65;;;18.88;;
32236;SDS011;18726;44.732;10.550;2022-10-31T18:42:43;22.92;;;17.45;;
32236;SDS011;18726;44.732;10.550;2022-10-31T18:45:46;26.08;;;17.08;;
32236;SDS011;18726;44.732;10.550;2022-10-31T18:48:50;37.55;;;25.65;;
32236;SDS011;18726;44.732;10.550;2022-10-31T18:51:54;38.22;;;27.08;;
32236;SDS011;18726;44.732;10.550;2022-10-31T18:54:57;49.42;;;26.23;;
32236;SDS011;18726;44.732;10.550;2022-10-31T18:58:01;34.38;;;23.17;;
32236;SDS011;18726;44.732;10.550;2022-10-31T19:01:08;37.13;;;23.58;;
32236;SDS011;18726;44.732;10.550;2022-10-31T19:04:13;32.17;;;24.20;;
32236;SDS011;18726;44.732;10.550;2022-10-31T19:07:16;36.88;;;23.85;;
32236;SDS011;18726;44.732;10.550;2022-10-31T19:10:20;29.77;;;21.85;;
32236;SDS011;18726;44.732;10.550;2022-10-31T19:13:23;31.98;;;21.52;;
32236;SDS011;18726;44.732;10.550;2022-10-31T19:16:27;29.48;;;20.73;;
32236;SDS011;18726;44.732;10.550;2022-10-31T19:19:31;23.58;;;15.48;;
32236;SDS011;18726;44.732;10.550;2022-10-31T19:22:35;17.67;;;15.27;;
32236;SDS011;18726;44.732;10.550;2022-10-31T19:25:39;26.08;;;19.27;;
32236;SDS011;18726;44.732;10.550;2022-10-31T19:28:42;24.13;;;18.17;;
32236;SDS011;18726;44.732;10.550;2022-10-31T19:31:45;20.92;;;16.77;;
32236;SDS011;18726;44.732;10.550;2022-10-31T19:34:50;22.17;;;17.33;;
32236;SDS011;18726;44.732;10.550;2022-10-31T19:37:54;27.35;;;21.20;;
32236;SDS011;18726;44.732;10.550;2022-10-31T19:40:58;30.38;;;21.00;;
32236;SDS011;18726;44.732;10.550;2022-10-31T19:44:04;33.90;;;22.25;;
32236;SDS011;18726;44.732;10.550;2022-10-31T19:47:08;34.63;;;23.40;;
32236;SDS011;18726;44.732;10.550;2022-10-31T19:50:12;22.83;;;17.77;;
32236;SDS011;18726;44.732;10.550;2022-10-31T19:53:16;22.25;;;18.08;;
32236;SDS011;18726;44.732;10.550;2022-10-31T19:56:22;23.15;;;17.17;;
32236;SDS011;18726;44.732;10.550;2022-10-31T19:59:27;19.13;;;14.32;;
32236;SDS011;18726;44.732;10.550;2022-10-31T20:02:30;24.98;;;19.60;;
32236;SDS011;18726;44.732;10.550;2022-10-31T20:05:38;25.83;;;21.33;;
32236;SDS011;18726;44.732;10.550;2022-10-31T20:08:43;28.00;;;19.92;;
32236;SDS011;18726;44.732;10.550;2022-10-31T20:11:47;27.90;;;19.60;;
32236;SDS011;18726;44.732;10.550;2022-10-31T20:14:51;27.45;;;20.35;;
32236;SDS011;18726;44.732;10.550;2022-10-31T20:17:54;25.00;;;18.67;;
32236;SDS011;18726;44.732;10.550;2022-10-31T20:24:10;25.13;;;18.67;;
32236;SDS011;18726;44.732;10.550;2022-10-31T20:27:14;29.52;;;18.38;;
32236;SDS011;18726;44.732;10.550;2022-10-31T20:30:18;24.27;;;17.50;;
32236;SDS011;18726;44.732;10.550;2022-10-31T20:33:21;22.52;;;17.08;;